Time;durP1;ratioP1;P1;durP2;ratioP2;P2;SDS_P1;SDS_P2;PMS_P1;PMS_P2;Temp;Humidity;BMP_temperature;BMP_pressure;BME280_temperature;BME280_humidity;BME280_pressure;Samples;Min_cycle;Max_cycle;Signal;HPM_P1;HPM_P2
2023/08/10 00:01:47;;;;;;;;;;;20.80;56.20;;;;;;1566513;74;912;-58
2023/08/10 00:03:49;;;;;;;;;;;20.80;56.10;;;;;;1561122;74;846;-56
2023/08/10 00:05:51;;;;;;;;;;;20.80;56.00;;;;;;1564347;74;1931;-56
2023/08/10 00:07:52;;;;;;;;;;;20.80;56.00;;;;;;1557535;74;759;-56
2023/08/10 00:09:54;;;;;;;;;;;20.80;56.00;;;;;;1565719;74;1193;-56
2023/08/10 00:11:56;;;;;;;;;;;20.80;55.90;;;;;;1555556;74;707;-58
2023/08/10 00:13:58;;;;;;;;;;;20.80;55.80;;;;;;1561629;74;699;-55
2023/08/10 00:16:00;;;;;;;;;;;20.80;55.80;;;;;;1566295;74;901;-58
2023/08/10 00:18:02;;;;;;;;;;;20.80;55.70;;;;;;1564896;74;738;-58
2023/08/10 00:20:10;;;;;;;;;;;20.80;55.70;;;;;;1560411;74;1055;-56
2023/08/10 00:22:08;;;;;;;;;;;20.80;55.60;;;;;;1570511;74;1592;-56
2023/08/10 00:24:09;;;;;;;;;;;20.80;55.60;;;;;;1559698;74;732;-54
2023/08/10 00:26:11;;;;;;;;;;;20.80;55.50;;;;;;1561672;74;1926;-55
2023/08/10 00:28:13;;;;;;;;;;;20.80;55.40;;;;;;1568848;74;741;-55
2023/08/10 00:30:15;;;;;;;;;;;20.70;55.40;;;;;;1568167;74;1087;-57
2023/08/10 00:32:19;;;;;;;;;;;20.80;55.40;;;;;;1568628;74;795;-56
2023/08/10 00:34:21;;;;;;;;;;;20.70;55.30;;;;;;1567292;74;864;-57
2023/08/10 00:36:23;;;;;;;;;;;20.70;55.20;;;;;;1560108;74;768;-57
2023/08/10 00:38:24;;;;;;;;;;;20.70;55.20;;;;;;1559719;74;1089;-57
2023/08/10 00:40:26;;;;;;;;;;;20.80;55.10;;;;;;1571404;74;744;-56
2023/08/10 00:42:28;;;;;;;;;;;20.70;55.10;;;;;;1559975;74;729;-54
2023/08/10 00:44:30;;;;;;;;;;;20.70;55.10;;;;;;1559606;74;916;-56
2023/08/10 00:46:32;;;;;;;;;;;20.80;55.00;;;;;;1565804;74;1945;-57
2023/08/10 00:48:34;;;;;;;;;;;20.70;55.00;;;;;;1557931;74;1102;-57
2023/08/10 00:50:36;;;;;;;;;;;20.70;55.10;;;;;;1564359;74;686;-56
2023/08/10 00:52:38;;;;;;;;;;;20.80;55.10;;;;;;1563163;74;777;-54
2023/08/10 00:54:40;;;;;;;;;;;20.70;55.10;;;;;;1567102;74;786;-56
2023/08/10 00:56:42;;;;;;;;;;;20.70;55.00;;;;;;1574626;74;862;-56
2023/08/10 00:58:44;;;;;;;;;;;20.70;55.00;;;;;;1568356;74;1122;-55
2023/08/10 01:00:46;;;;;;;;;;;20.70;55.00;;;;;;1564728;74;770;-55
2023/08/10 01:02:48;;;;;;;;;;;20.70;55.00;;;;;;1563706;74;833;-54
2023/08/10 01:04:50;;;;;;;;;;;20.70;55.00;;;;;;1558616;74;840;-55
2023/08/10 01:06:53;;;;;;;;;;;20.70;54.90;;;;;;1557352;74;1939;-58
2023/08/10 01:08:57;;;;;;;;;;;20.70;55.00;;;;;;1567237;74;1140;-56
2023/08/10 01:11:12;;;;;;;;;;;20.80;55.00;;;;;;1574968;74;654;-55
2023/08/10 01:13:21;;;;;;;;;;;20.70;55.00;;;;;;1565794;74;1850;-56
2023/08/10 01:15:30;;;;;;;;;;;20.70;55.00;;;;;;1565466;74;788;-55
2023/08/10 01:17:34;;;;;;;;;;;20.70;55.00;;;;;;1561598;74;807;-55
2023/08/10 01:19:36;;;;;;;;;;;20.70;54.80;;;;;;1561232;74;1089;-57
2023/08/10 01:21:40;;;;;;;;;;;20.70;54.90;;;;;;1571212;74;1421;-57
2023/08/10 01:23:43;;;;;;;;;;;20.80;55.00;;;;;;1577627;74;714;-58
2023/08/10 01:25:45;;;;;;;;;;;20.70;54.90;;;;;;1566765;74;1918;-55
2023/08/10 01:27:47;;;;;;;;;;;20.70;54.90;;;;;;1573211;74;766;-57
2023/08/10 01:29:49;;;;;;;;;;;20.80;55.00;;;;;;1582935;73;1095;-55
2023/08/10 01:31:51;;;;;;;;;;;20.70;55.00;;;;;;1565425;74;780;-58
2023/08/10 01:33:53;;;;;;;;;;;20.70;55.00;;;;;;1554261;74;656;-57
2023/08/10 01:35:55;;;;;;;;;;;20.70;55.10;;;;;;1569208;74;742;-57
2023/08/10 01:37:57;;;;;;;;;;;20.70;55.10;;;;;;1578160;74;727;-57
2023/08/10 01:39:59;;;;;;;;;;;20.70;55.20;;;;;;1562128;74;1107;-55
2023/08/10 01:42:01;;;;;;;;;;;20.70;55.10;;;;;;1554872;74;783;-55
2023/08/10 01:44:03;;;;;;;;;;;20.70;55.00;;;;;;1568892;74;802;-57
2023/08/10 01:46:05;;;;;;;;;;;20.70;54.90;;;;;;1569677;74;1900;-57
2023/08/10 01:48:09;;;;;;;;;;;20.70;54.90;;;;;;1568824;74;789;-57
2023/08/10 01:50:11;;;;;;;;;;;20.70;54.70;;;;;;1575926;74;1845;-57
2023/08/10 01:52:13;;;;;;;;;;;20.70;54.90;;;;;;1570543;74;781;-57
2023/08/10 01:54:15;;;;;;;;;;;20.70;54.90;;;;;;1560098;74;767;-56
2023/08/10 01:56:18;;;;;;;;;;;20.80;54.90;;;;;;1565857;74;719;-58
2023/08/10 01:58:19;;;;;;;;;;;20.70;54.80;;;;;;1562455;74;719;-57
2023/08/10 02:00:21;;;;;;;;;;;20.80;54.70;;;;;;1569351;74;1120;-54
2023/08/10 02:02:23;;;;;;;;;;;20.70;54.60;;;;;;1581759;74;722;-56
2023/08/10 02:04:25;;;;;;;;;;;20.70;54.60;;;;;;1570777;74;763;-56
2023/08/10 02:06:27;;;;;;;;;;;20.80;54.80;;;;;;1562295;74;1930;-57
2023/08/10 02:08:29;;;;;;;;;;;20.70;54.70;;;;;;1567195;74;1124;-55
2023/08/10 02:10:31;;;;;;;;;;;20.80;54.70;;;;;;1569490;74;725;-58
2023/08/10 02:12:33;;;;;;;;;;;20.70;54.70;;;;;;1574199;74;749;-57
2023/08/10 02:14:34;;;;;;;;;;;20.70;54.70;;;;;;1568348;74;914;-57
2023/08/10 02:16:36;;;;;;;;;;;20.80;54.70;;;;;;1562811;74;735;-58
2023/08/10 02:18:39;;;;;;;;;;;20.70;54.70;;;;;;1568234;74;1498;-56
2023/08/10 02:20:41;;;;;;;;;;;20.70;54.70;;;;;;1563230;74;694;-53
2023/08/10 02:22:47;;;;;;;;;;;20.70;54.70;;;;;;1570045;74;681;-55
2023/08/10 02:24:49;;;;;;;;;;;20.70;54.70;;;;;;1561498;74;669;-55
2023/08/10 02:26:51;;;;;;;;;;;20.70;54.70;;;;;;1574530;74;1934;-56
2023/08/10 02:28:53;;;;;;;;;;;20.70;54.70;;;;;;1569661;74;1089;-54
2023/08/10 02:30:54;;;;;;;;;;;20.70;55.00;;;;;;1569524;74;758;-54
2023/08/10 02:32:57;;;;;;;;;;;20.70;55.00;;;;;;1567115;74;716;-55
2023/08/10 02:34:59;;;;;;;;;;;20.70;54.90;;;;;;1556808;74;852;-55
2023/08/10 02:37:01;;;;;;;;;;;20.70;54.90;;;;;;1572577;74;822;-55
2023/08/10 02:39:05;;;;;;;;;;;20.70;54.90;;;;;;1563838;74;1093;-55
2023/08/10 02:41:06;;;;;;;;;;;20.70;54.80;;;;;;1565841;74;2053;-57
2023/08/10 02:43:08;;;;;;;;;;;20.70;54.80;;;;;;1566992;74;767;-55
2023/08/10 02:45:10;;;;;;;;;;;20.60;54.70;;;;;;1568398;74;668;-54
2023/08/10 02:47:12;;;;;;;;;;;20.70;54.80;;;;;;1557980;74;1911;-57
2023/08/10 02:49:14;;;;;;;;;;;20.60;54.70;;;;;;1574435;74;1072;-55
2023/08/10 02:51:16;;;;;;;;;;;20.60;54.60;;;;;;1565202;74;789;-54
2023/08/10 02:53:18;;;;;;;;;;;20.60;54.50;;;;;;1564780;74;692;-56
2023/08/10 02:55:21;;;;;;;;;;;20.60;54.50;;;;;;1564158;74;793;-54
2023/08/10 02:57:23;;;;;;;;;;;20.60;54.60;;;;;;1570735;74;701;-54
2023/08/10 02:59:25;;;;;;;;;;;20.60;54.60;;;;;;1562236;74;1095;-54
2023/08/10 03:01:26;;;;;;;;;;;20.60;54.50;;;;;;1579144;74;726;-55
2023/08/10 03:03:28;;;;;;;;;;;20.60;54.50;;;;;;1572473;74;726;-57
2023/08/10 03:05:30;;;;;;;;;;;20.60;54.40;;;;;;1560784;74;744;-57
2023/08/10 03:07:32;;;;;;;;;;;20.70;54.30;;;;;;1564807;74;1915;-56
2023/08/10 03:09:34;;;;;;;;;;;20.60;54.30;;;;;;1566266;74;1128;-55
2023/08/10 03:11:36;;;;;;;;;;;20.70;54.40;;;;;;1567045;74;766;-55
2023/08/10 03:13:38;;;;;;;;;;;20.70;54.40;;;;;;1568967;74;1431;-54
2023/08/10 03:15:40;;;;;;;;;;;20.70;54.40;;;;;;1569046;74;794;-54
2023/08/10 03:17:42;;;;;;;;;;;20.60;54.30;;;;;;1563284;74;696;-56
2023/08/10 03:19:44;;;;;;;;;;;20.70;54.40;;;;;;1555378;74;1157;-56
2023/08/10 03:21:46;;;;;;;;;;;20.60;54.30;;;;;;1561641;74;734;-57
2023/08/10 03:23:48;;;;;;;;;;;20.60;54.20;;;;;;1574675;74;674;-56
2023/08/10 03:25:50;;;;;;;;;;;20.60;54.40;;;;;;1562261;74;797;-57
2023/08/10 03:27:52;;;;;;;;;;;20.60;54.40;;;;;;1557361;74;1928;-54
2023/08/10 03:29:54;;;;;;;;;;;20.50;54.30;;;;;;1563836;73;1110;-54
2023/08/10 03:31:55;;;;;;;;;;;20.60;54.40;;;;;;1569349;74;711;-55
2023/08/10 03:33:57;;;;;;;;;;;20.60;54.40;;;;;;1566012;74;749;-54
2023/08/10 03:36:00;;;;;;;;;;;20.60;54.40;;;;;;1575401;74;688;-53
2023/08/10 03:38:02;;;;;;;;;;;20.50;54.50;;;;;;1567959;74;740;-54
2023/08/10 03:40:04;;;;;;;;;;;20.50;54.60;;;;;;1564594;74;1166;-53
2023/08/10 03:42:06;;;;;;;;;;;20.50;54.50;;;;;;1560967;74;696;-56
2023/08/10 03:44:08;;;;;;;;;;;20.50;54.60;;;;;;1571205;74;653;-54
2023/08/10 03:46:10;;;;;;;;;;;20.50;54.60;;;;;;1564402;74;742;-54
2023/08/10 03:48:12;;;;;;;;;;;20.50;54.50;;;;;;1569422;74;782;-57
2023/08/10 03:50:14;;;;;;;;;;;20.50;54.50;;;;;;1576928;74;1153;-57
2023/08/10 03:52:15;;;;;;;;;;;20.50;54.40;;;;;;1566461;74;705;-53
2023/08/10 03:54:17;;;;;;;;;;;20.50;54.40;;;;;;1569790;74;719;-56
2023/08/10 03:56:19;;;;;;;;;;;20.50;54.30;;;;;;1565147;74;769;-56
2023/08/10 03:58:21;;;;;;;;;;;20.50;54.30;;;;;;1566358;74;676;-54
2023/08/10 04:00:23;;;;;;;;;;;20.50;54.30;;;;;;1562344;74;1183;-54
2023/08/10 04:02:25;;;;;;;;;;;20.00;53.90;;;;;;1564978;74;708;-57
2023/08/10 04:04:27;;;;;;;;;;;20.50;54.20;;;;;;1563084;74;808;-56
2023/08/10 04:06:29;;;;;;;;;;;20.50;54.20;;;;;;1550051;74;1928;-56
2023/08/10 04:08:31;;;;;;;;;;;20.50;54.10;;;;;;1559612;74;1173;-57
2023/08/10 04:10:34;;;;;;;;;;;20.50;54.20;;;;;;1560915;74;1290;-56
2023/08/10 04:12:36;;;;;;;;;;;20.50;54.00;;;;;;1557144;74;785;-56
2023/08/10 04:14:38;;;;;;;;;;;20.50;54.00;;;;;;1569180;74;694;-56
2023/08/10 04:16:39;;;;;;;;;;;20.50;54.00;;;;;;1569648;74;851;-57
2023/08/10 04:18:42;;;;;;;;;;;20.50;54.10;;;;;;1565242;74;1166;-57
2023/08/10 04:20:44;;;;;;;;;;;20.50;54.10;;;;;;1572114;74;758;-57
2023/08/10 04:22:46;;;;;;;;;;;20.50;54.10;;;;;;1561004;74;731;-55
2023/08/10 04:24:48;;;;;;;;;;;20.60;54.10;;;;;;1561222;74;787;-57
2023/08/10 04:26:50;;;;;;;;;;;20.50;54.10;;;;;;1565038;74;1935;-54
2023/08/10 04:28:51;;;;;;;;;;;20.50;54.10;;;;;;1561345;74;1145;-54
2023/08/10 04:30:53;;;;;;;;;;;20.50;54.10;;;;;;1577715;74;730;-54
2023/08/10 04:32:58;;;;;;;;;;;20.50;54.20;;;;;;1567883;74;792;-54
2023/08/10 04:35:00;;;;;;;;;;;20.50;54.20;;;;;;1568082;74;701;-54
2023/08/10 04:37:02;;;;;;;;;;;20.50;54.20;;;;;;1573918;74;779;-54
2023/08/10 04:39:04;;;;;;;;;;;20.50;54.30;;;;;;1565442;74;1162;-57
2023/08/10 04:41:06;;;;;;;;;;;20.40;54.30;;;;;;1563494;74;805;-56
2023/08/10 04:43:08;;;;;;;;;;;20.50;54.30;;;;;;1567266;74;713;-56
2023/08/10 04:45:09;;;;;;;;;;;20.40;54.20;;;;;;1561887;74;791;-55
2023/08/10 04:47:12;;;;;;;;;;;20.40;54.30;;;;;;1566229;74;1953;-57
2023/08/10 04:49:13;;;;;;;;;;;20.40;54.40;;;;;;1560465;74;1140;-56
2023/08/10 04:51:15;;;;;;;;;;;20.40;54.40;;;;;;1564783;74;763;-56
2023/08/10 04:53:17;;;;;;;;;;;20.40;54.40;;;;;;1571900;74;748;-55
2023/08/10 04:55:19;;;;;;;;;;;20.40;54.40;;;;;;1565392;74;760;-55
2023/08/10 04:57:21;;;;;;;;;;;20.50;54.50;;;;;;1569919;74;723;-55
2023/08/10 04:59:23;;;;;;;;;;;20.40;54.40;;;;;;1555368;74;1135;-57
2023/08/10 05:01:25;;;;;;;;;;;20.50;54.50;;;;;;1555740;74;797;-57
2023/08/10 05:03:27;;;;;;;;;;;20.40;54.40;;;;;;1573507;74;728;-56
2023/08/10 05:05:29;;;;;;;;;;;20.50;54.50;;;;;;1558590;74;774;-56
2023/08/10 05:07:31;;;;;;;;;;;20.40;54.40;;;;;;1572413;74;1927;-55
2023/08/10 05:09:33;;;;;;;;;;;20.50;54.50;;;;;;1571186;74;1136;-54
2023/08/10 05:11:34;;;;;;;;;;;20.50;54.50;;;;;;1561346;74;670;-54
2023/08/10 05:13:36;;;;;;;;;;;20.40;54.40;;;;;;1566832;74;727;-56
2023/08/10 05:15:38;;;;;;;;;;;20.50;54.60;;;;;;1561297;74;685;-57
2023/08/10 05:17:41;;;;;;;;;;;20.50;54.60;;;;;;1553154;74;738;-57
2023/08/10 05:19:43;;;;;;;;;;;20.50;54.60;;;;;;1576708;74;1163;-56
2023/08/10 05:21:44;;;;;;;;;;;20.50;54.60;;;;;;1580933;74;700;-57
2023/08/10 05:23:46;;;;;;;;;;;20.50;54.70;;;;;;1571405;74;807;-56
2023/08/10 05:25:48;;;;;;;;;;;20.50;54.70;;;;;;1551351;74;724;-56
2023/08/10 05:27:50;;;;;;;;;;;20.50;54.60;;;;;;1562420;74;1942;-57
2023/08/10 05:29:52;;;;;;;;;;;20.50;54.60;;;;;;1569687;74;1175;-54
2023/08/10 05:31:54;;;;;;;;;;;20.50;54.50;;;;;;1570060;74;779;-54
2023/08/10 05:33:56;;;;;;;;;;;20.50;54.60;;;;;;1556075;74;782;-55
2023/08/10 05:35:58;;;;;;;;;;;20.50;54.60;;;;;;1565392;74;749;-55
2023/08/10 05:37:59;;;;;;;;;;;20.50;54.60;;;;;;1566070;74;676;-58
2023/08/10 05:40:02;;;;;;;;;;;20.60;54.70;;;;;;1573888;74;1145;-56
2023/08/10 05:42:04;;;;;;;;;;;20.50;54.80;;;;;;1570708;74;704;-57
2023/08/10 05:44:06;;;;;;;;;;;20.60;54.80;;;;;;1569733;74;796;-57
2023/08/10 05:46:08;;;;;;;;;;;20.60;54.90;;;;;;1566940;74;733;-55
2023/08/10 05:48:10;;;;;;;;;;;20.50;54.80;;;;;;1565208;74;1940;-57
2023/08/10 05:50:13;;;;;;;;;;;20.50;54.80;;;;;;1571637;74;1120;-57
2023/08/10 05:52:14;;;;;;;;;;;20.60;54.80;;;;;;1566753;74;771;-57
2023/08/10 05:54:16;;;;;;;;;;;20.60;55.00;;;;;;1568179;74;792;-57
2023/08/10 05:56:18;;;;;;;;;;;20.50;55.00;;;;;;1571286;74;799;-57
2023/08/10 05:58:20;;;;;;;;;;;20.60;54.70;;;;;;1566060;74;730;-56
2023/08/10 06:00:22;;;;;;;;;;;20.60;54.70;;;;;;1554966;74;1142;-54
2023/08/10 06:02:24;;;;;;;;;;;20.50;54.70;;;;;;1554728;74;1523;-55
2023/08/10 06:04:26;;;;;;;;;;;20.60;54.60;;;;;;1567640;74;688;-57
2023/08/10 06:06:29;;;;;;;;;;;20.60;54.60;;;;;;1574199;74;730;-57
2023/08/10 06:08:31;;;;;;;;;;;20.60;54.50;;;;;;1564357;74;1938;-55
2023/08/10 06:10:33;;;;;;;;;;;20.60;54.70;;;;;;1576280;74;825;-55
2023/08/10 06:12:35;;;;;;;;;;;20.60;54.80;;;;;;1549650;74;742;-53
2023/08/10 06:14:37;;;;;;;;;;;20.60;54.60;;;;;;1553890;74;753;-57
2023/08/10 06:16:39;;;;;;;;;;;20.70;54.70;;;;;;1570489;74;795;-53
2023/08/10 06:18:41;;;;;;;;;;;20.60;54.70;;;;;;1564573;74;1299;-56
2023/08/10 06:20:43;;;;;;;;;;;20.70;54.50;;;;;;1564782;74;776;-57
2023/08/10 06:22:45;;;;;;;;;;;20.70;54.20;;;;;;1563160;74;635;-55
2023/08/10 06:24:46;;;;;;;;;;;20.70;54.20;;;;;;1564998;74;653;-57
2023/08/10 06:26:49;;;;;;;;;;;20.60;54.00;;;;;;1551506;74;647;-55
2023/08/10 06:28:51;;;;;;;;;;;20.70;54.10;;;;;;1565370;74;1917;-55
2023/08/10 06:30:52;;;;;;;;;;;20.70;54.20;;;;;;1567484;74;618;-55
2023/08/10 06:32:54;;;;;;;;;;;20.70;54.40;;;;;;1570219;74;773;-55
2023/08/10 06:34:56;;;;;;;;;;;20.70;54.30;;;;;;1569720;74;862;-57
2023/08/10 06:36:59;;;;;;;;;;;20.70;54.40;;;;;;1572375;74;771;-56
2023/08/10 06:39:02;;;;;;;;;;;20.70;54.30;;;;;;1564085;73;1168;-54
2023/08/10 06:41:04;;;;;;;;;;;20.70;54.30;;;;;;1564760;74;732;-57
2023/08/10 06:43:06;;;;;;;;;;;20.60;54.40;;;;;;1562917;74;810;-56
2023/08/10 06:45:08;;;;;;;;;;;20.70;54.50;;;;;;1583319;74;780;-56
2023/08/10 06:47:10;;;;;;;;;;;20.80;54.70;;;;;;1569354;74;666;-56
2023/08/10 06:49:12;;;;;;;;;;;20.70;55.00;;;;;;1564217;74;1915;-56
2023/08/10 06:51:14;;;;;;;;;;;20.80;55.00;;;;;;1562567;74;761;-54
2023/08/10 06:53:16;;;;;;;;;;;20.90;54.80;;;;;;1560617;74;777;-55
2023/08/10 06:55:18;;;;;;;;;;;20.90;55.00;;;;;;1569789;74;661;-55
2023/08/10 06:57:22;;;;;;;;;;;20.90;54.90;;;;;;1571200;74;732;-57
2023/08/10 06:59:24;;;;;;;;;;;20.90;54.80;;;;;;1562923;74;1500;-54
2023/08/10 07:01:26;;;;;;;;;;;20.90;54.80;;;;;;1567892;74;715;-57
2023/08/10 07:03:28;;;;;;;;;;;20.90;54.80;;;;;;1573924;74;843;-57
2023/08/10 07:05:31;;;;;;;;;;;20.90;54.80;;;;;;1557029;74;740;-57
2023/08/10 07:07:33;;;;;;;;;;;20.90;54.90;;;;;;1566168;74;1935;-56
2023/08/10 07:09:36;;;;;;;;;;;21.00;54.70;;;;;;1576707;74;1128;-57
2023/08/10 07:11:38;;;;;;;;;;;21.00;54.40;;;;;;1557755;74;812;-54
2023/08/10 07:13:41;;;;;;;;;;;21.00;54.40;;;;;;1574164;74;665;-57
2023/08/10 07:15:44;;;;;;;;;;;21.00;54.60;;;;;;1571911;74;748;-57
2023/08/10 07:17:46;;;;;;;;;;;21.00;54.30;;;;;;1565045;74;787;-56
2023/08/10 07:19:48;;;;;;;;;;;21.00;54.40;;;;;;1572104;74;1187;-54
2023/08/10 07:21:55;;;;;;;;;;;21.00;54.40;;;;;;1556000;74;783;-54
2023/08/10 07:23:53;;;;;;;;;;;20.90;54.30;;;;;;1568273;74;1583;-57
2023/08/10 07:25:55;;;;;;;;;;;21.00;54.50;;;;;;1569948;74;777;-56
2023/08/10 07:27:57;;;;;;;;;;;21.00;54.60;;;;;;1555550;74;1936;-57
2023/08/10 07:29:59;;;;;;;;;;;21.00;54.60;;;;;;1572135;74;1143;-55
2023/08/10 07:32:01;;;;;;;;;;;21.00;54.70;;;;;;1570128;74;1155;-56
2023/08/10 07:34:03;;;;;;;;;;;21.00;54.40;;;;;;1566366;74;786;-54
2023/08/10 07:36:05;;;;;;;;;;;21.00;54.40;;;;;;1554655;74;808;-54
2023/08/10 07:38:07;;;;;;;;;;;21.00;54.50;;;;;;1556786;74;760;-55
2023/08/10 07:40:12;;;;;;;;;;;21.00;54.30;;;;;;1571222;74;1147;-54
2023/08/10 07:42:14;;;;;;;;;;;21.00;54.20;;;;;;1567543;74;950;-56
2023/08/10 07:44:16;;;;;;;;;;;21.10;54.10;;;;;;1552401;74;906;-56
2023/08/10 07:46:18;;;;;;;;;;;21.10;53.90;;;;;;1568776;74;674;-54
2023/08/10 07:48:20;;;;;;;;;;;21.10;53.30;;;;;;1561333;74;1944;-53
2023/08/10 07:50:21;;;;;;;;;;;21.00;52.70;;;;;;1564768;74;1093;-54
2023/08/10 07:52:23;;;;;;;;;;;21.00;53.20;;;;;;1566769;74;756;-56
2023/08/10 07:54:26;;;;;;;;;;;21.00;53.30;;;;;;1570501;74;674;-57
2023/08/10 07:56:27;;;;;;;;;;;21.00;53.30;;;;;;1565036;74;1584;-57
2023/08/10 07:58:29;;;;;;;;;;;21.00;53.00;;;;;;1561180;74;1170;-55
2023/08/10 08:00:31;;;;;;;;;;;21.10;53.00;;;;;;1564717;74;756;-56
2023/08/10 08:02:33;;;;;;;;;;;21.10;52.30;;;;;;1567442;74;736;-54
2023/08/10 08:04:35;;;;;;;;;;;21.10;51.30;;;;;;1568023;74;803;-55
2023/08/10 08:06:37;;;;;;;;;;;21.10;51.60;;;;;;1553202;74;767;-57
2023/08/10 08:08:39;;;;;;;;;;;21.10;51.50;;;;;;1566049;74;1930;-57
2023/08/10 08:10:41;;;;;;;;;;;21.00;50.90;;;;;;1566215;74;1590;-54
2023/08/10 08:12:43;;;;;;;;;;;21.10;51.10;;;;;;1563023;74;829;-57
2023/08/10 08:14:45;;;;;;;;;;;21.10;51.20;;;;;;1564820;74;778;-55
2023/08/10 08:16:46;;;;;;;;;;;21.10;51.20;;;;;;1562297;74;806;-55
2023/08/10 08:18:49;;;;;;;;;;;21.20;51.40;;;;;;1563761;74;1210;-55
2023/08/10 08:20:51;;;;;;;;;;;21.10;51.40;;;;;;1569436;74;966;-55
2023/08/10 08:22:53;;;;;;;;;;;21.10;51.50;;;;;;1571897;74;1530;-56
2023/08/10 08:24:55;;;;;;;;;;;21.20;51.40;;;;;;1571381;74;698;-55
2023/08/10 08:26:57;;;;;;;;;;;21.20;51.30;;;;;;1565655;74;703;-53
2023/08/10 08:28:59;;;;;;;;;;;21.20;51.30;;;;;;1574030;73;1942;-55
2023/08/10 08:31:01;;;;;;;;;;;21.30;51.40;;;;;;1561178;74;642;-55
2023/08/10 08:33:02;;;;;;;;;;;21.30;51.50;;;;;;1563762;74;685;-57
2023/08/10 08:35:05;;;;;;;;;;;21.30;51.50;;;;;;1568566;74;771;-54
2023/08/10 08:37:06;;;;;;;;;;;21.30;51.60;;;;;;1568861;74;1327;-57
2023/08/10 08:39:10;;;;;;;;;;;21.30;51.60;;;;;;1553683;74;1084;-57
2023/08/10 08:41:12;;;;;;;;;;;21.30;51.60;;;;;;1573254;74;817;-54
2023/08/10 08:43:13;;;;;;;;;;;21.30;51.60;;;;;;1555885;74;661;-57
2023/08/10 08:45:16;;;;;;;;;;;21.30;51.50;;;;;;1567954;74;720;-57
2023/08/10 08:47:18;;;;;;;;;;;21.40;51.50;;;;;;1563520;74;757;-55
2023/08/10 08:49:19;;;;;;;;;;;21.40;51.50;;;;;;1559578;74;1949;-57
2023/08/10 08:51:21;;;;;;;;;;;21.40;51.30;;;;;;1571519;74;1302;-55
2023/08/10 08:53:23;;;;;;;;;;;21.40;51.50;;;;;;1567251;74;746;-55
2023/08/10 08:55:25;;;;;;;;;;;21.40;51.40;;;;;;1567233;74;799;-56
2023/08/10 08:57:28;;;;;;;;;;;21.40;51.50;;;;;;1563248;74;764;-56
2023/08/10 08:59:29;;;;;;;;;;;21.40;51.50;;;;;;1553939;74;1148;-56
2023/08/10 09:01:31;;;;;;;;;;;21.40;51.40;;;;;;1558983;74;704;-55
2023/08/10 09:03:33;;;;;;;;;;;21.40;51.40;;;;;;1562566;74;769;-54
2023/08/10 09:05:35;;;;;;;;;;;21.40;51.20;;;;;;1562446;74;1534;-57
2023/08/10 09:07:37;;;;;;;;;;;21.40;51.00;;;;;;1566039;74;746;-55
2023/08/10 09:09:39;;;;;;;;;;;21.40;51.20;;;;;;1558922;74;1931;-56
2023/08/10 09:11:41;;;;;;;;;;;21.50;51.30;;;;;;1556237;74;810;-57
2023/08/10 09:13:43;;;;;;;;;;;21.40;51.20;;;;;;1576293;74;710;-55
2023/08/10 09:15:44;;;;;;;;;;;21.40;51.20;;;;;;1574759;74;630;-54
2023/08/10 09:17:51;;;;;;;;;;;21.50;51.30;;;;;;1566509;74;735;-54
2023/08/10 09:19:53;;;;;;;;;;;21.40;50.90;;;;;;1567799;74;1426;-55
2023/08/10 09:21:55;;;;;;;;;;;21.50;51.00;;;;;;1563452;74;705;-57
2023/08/10 09:23:57;;;;;;;;;;;21.50;51.20;;;;;;1575068;74;692;-56
2023/08/10 09:25:59;;;;;;;;;;;21.50;51.20;;;;;;1567301;74;668;-56
2023/08/10 09:28:01;;;;;;;;;;;21.40;51.00;;;;;;1566398;74;796;-53
2023/08/10 09:30:04;;;;;;;;;;;21.40;51.00;;;;;;1566146;73;1909;-54
2023/08/10 09:32:06;;;;;;;;;;;21.40;50.90;;;;;;1561076;74;756;-54
2023/08/10 09:34:13;;;;;;;;;;;21.50;51.00;;;;;;1560295;74;1585;-55
2023/08/10 09:36:12;;;;;;;;;;;21.40;50.70;;;;;;1563330;74;1559;-55
2023/08/10 09:38:13;;;;;;;;;;;21.50;50.90;;;;;;1569685;74;742;-54
2023/08/10 09:40:16;;;;;;;;;;;21.50;48.40;;;;;;1571263;74;1125;-57
2023/08/10 09:42:18;;;;;;;;;;;21.40;49.70;;;;;;1572383;74;766;-57
2023/08/10 09:44:19;;;;;;;;;;;21.40;49.90;;;;;;1575880;74;870;-57
2023/08/10 09:46:21;;;;;;;;;;;21.40;49.80;;;;;;1573182;74;771;-55
2023/08/10 09:48:25;;;;;;;;;;;21.50;50.10;;;;;;1567244;74;1574;-54
2023/08/10 09:50:27;;;;;;;;;;;21.40;50.00;;;;;;1566934;74;1130;-54
2023/08/10 09:52:29;;;;;;;;;;;21.50;50.10;;;;;;1558362;74;745;-54
2023/08/10 09:54:30;;;;;;;;;;;21.40;50.10;;;;;;1565752;74;803;-57
2023/08/10 09:56:32;;;;;;;;;;;21.40;50.00;;;;;;1574707;74;785;-57
2023/08/10 09:58:37;;;;;;;;;;;21.40;50.10;;;;;;1565229;74;1139;-56
2023/08/10 10:00:39;;;;;;;;;;;21.50;50.20;;;;;;1565486;74;781;-53
2023/08/10 10:02:41;;;;;;;;;;;21.50;50.30;;;;;;1558444;74;1535;-57
2023/08/10 10:04:43;;;;;;;;;;;21.50;50.20;;;;;;1579174;74;743;-57
2023/08/10 10:06:45;;;;;;;;;;;21.50;50.10;;;;;;1576583;74;721;-55
2023/08/10 10:08:48;;;;;;;;;;;21.50;50.00;;;;;;1571775;74;1954;-54
2023/08/10 10:10:50;;;;;;;;;;;21.40;49.90;;;;;;1563630;74;1688;-54
2023/08/10 10:12:52;;;;;;;;;;;21.40;49.80;;;;;;1565640;74;786;-57
2023/08/10 10:14:54;;;;;;;;;;;21.50;49.90;;;;;;1568341;74;758;-57
2023/08/10 10:16:56;;;;;;;;;;;21.40;49.70;;;;;;1566268;74;1493;-56
2023/08/10 10:18:58;;;;;;;;;;;21.40;49.40;;;;;;1559626;74;1170;-57
2023/08/10 10:21:00;;;;;;;;;;;21.50;49.60;;;;;;1559623;74;725;-57
2023/08/10 10:23:02;;;;;;;;;;;21.40;49.50;;;;;;1550524;74;814;-56
2023/08/10 10:25:04;;;;;;;;;;;21.40;49.40;;;;;;1555675;74;696;-55
2023/08/10 10:27:08;;;;;;;;;;;21.50;49.50;;;;;;1572844;74;801;-55
2023/08/10 10:29:12;;;;;;;;;;;21.40;49.40;;;;;;1554535;74;1959;-55
2023/08/10 10:31:14;;;;;;;;;;;21.50;49.50;;;;;;1565715;74;1552;-57
2023/08/10 10:33:17;;;;;;;;;;;21.50;49.50;;;;;;1571547;74;681;-56
2023/08/10 10:35:23;;;;;;;;;;;21.40;49.60;;;;;;1561129;74;675;-56
2023/08/10 10:37:29;;;;;;;;;;;21.40;49.50;;;;;;1567952;74;718;-55
2023/08/10 10:39:31;;;;;;;;;;;21.50;48.40;;;;;;1565283;74;1207;-57
2023/08/10 10:41:36;;;;;;;;;;;21.50;49.20;;;;;;1571912;74;668;-54
2023/08/10 10:43:38;;;;;;;;;;;21.40;48.60;;;;;;1575834;74;1481;-56
2023/08/10 10:45:40;;;;;;;;;;;21.40;48.70;;;;;;1559746;74;891;-56
2023/08/10 10:47:44;;;;;;;;;;;21.40;47.30;;;;;;1576669;74;963;-55
2023/08/10 10:49:55;;;;;;;;;;;21.40;48.20;;;;;;1569347;74;1939;-55
2023/08/10 10:52:00;;;;;;;;;;;21.40;48.60;;;;;;1557034;74;736;-56
2023/08/10 10:54:02;;;;;;;;;;;21.40;48.60;;;;;;1562002;74;920;-54
2023/08/10 10:56:04;;;;;;;;;;;21.50;48.60;;;;;;1580648;74;1440;-56
2023/08/10 10:58:09;;;;;;;;;;;21.40;48.10;;;;;;1576549;74;1461;-55
2023/08/10 11:00:12;;;;;;;;;;;21.40;48.30;;;;;;1579011;73;1125;-57
2023/08/10 11:02:14;;;;;;;;;;;21.50;48.80;;;;;;1565257;74;650;-55
2023/08/10 11:04:16;;;;;;;;;;;21.40;48.50;;;;;;1567376;74;804;-54
2023/08/10 11:06:20;;;;;;;;;;;21.50;48.80;;;;;;1565835;74;699;-57
2023/08/10 11:08:22;;;;;;;;;;;21.30;48.60;;;;;;1556683;74;680;-55
2023/08/10 11:10:24;;;;;;;;;;;21.50;48.80;;;;;;1560816;74;1927;-57
2023/08/10 11:12:26;;;;;;;;;;;21.40;48.60;;;;;;1557987;74;1466;-57
2023/08/10 11:14:28;;;;;;;;;;;21.40;47.80;;;;;;1565273;74;706;-55
2023/08/10 11:16:31;;;;;;;;;;;21.40;48.40;;;;;;1566243;74;801;-55
2023/08/10 11:18:33;;;;;;;;;;;21.50;48.60;;;;;;1566121;73;1545;-53
2023/08/10 11:20:35;;;;;;;;;;;21.40;48.50;;;;;;1577457;74;767;-55
2023/08/10 11:22:38;;;;;;;;;;;21.40;48.60;;;;;;1570142;74;715;-57
2023/08/10 11:24:40;;;;;;;;;;;21.40;48.50;;;;;;1560758;74;978;-54
2023/08/10 11:26:42;;;;;;;;;;;21.40;48.40;;;;;;1577271;74;1277;-56
2023/08/10 11:28:44;;;;;;;;;;;21.40;48.50;;;;;;1573650;73;1177;-56
2023/08/10 11:30:46;;;;;;;;;;;21.40;48.40;;;;;;1556339;74;1934;-54
2023/08/10 11:32:49;;;;;;;;;;;21.40;48.30;;;;;;1576419;74;723;-57
2023/08/10 11:34:53;;;;;;;;;;;21.40;48.40;;;;;;1566614;74;809;-55
2023/08/10 11:36:54;;;;;;;;;;;21.40;48.50;;;;;;1550791;74;1449;-57
2023/08/10 11:38:56;;;;;;;;;;;21.40;48.60;;;;;;1560861;74;1106;-55
2023/08/10 11:40:58;;;;;;;;;;;21.40;48.40;;;;;;1568337;74;1463;-57
2023/08/10 11:43:14;;;;;;;;;;;21.40;48.50;;;;;;1570762;74;730;-57
2023/08/10 11:45:23;;;;;;;;;;;21.50;48.40;;;;;;1560525;74;705;-54
2023/08/10 11:47:28;;;;;;;;;;;21.40;48.40;;;;;;1565607;74;699;-55
2023/08/10 11:49:29;;;;;;;;;;;21.40;48.40;;;;;;1566704;74;1928;-55
2023/08/10 11:51:34;;;;;;;;;;;21.50;48.50;;;;;;1557860;74;771;-57
2023/08/10 11:53:41;;;;;;;;;;;21.40;48.40;;;;;;1569756;74;802;-57
2023/08/10 11:55:45;;;;;;;;;;;21.50;48.60;;;;;;1565392;74;1653;-57
2023/08/10 11:57:52;;;;;;;;;;;21.40;48.60;;;;;;1573725;74;707;-56
2023/08/10 11:59:51;;;;;;;;;;;21.50;48.80;;;;;;1563246;74;1615;-55
2023/08/10 12:01:54;;;;;;;;;;;21.40;48.70;;;;;;1570324;74;719;-55
2023/08/10 12:03:56;;;;;;;;;;;21.40;48.80;;;;;;1581811;74;714;-55
2023/08/10 12:06:00;;;;;;;;;;;21.40;48.70;;;;;;1552990;74;1034;-56
2023/08/10 12:08:03;;;;;;;;;;;21.40;48.70;;;;;;1574867;74;1543;-55
2023/08/10 12:10:05;;;;;;;;;;;21.40;48.70;;;;;;1565281;74;1938;-55